sensor_id;sensor_type;location;lat;lon;timestamp;P1;durP1;ratioP1;P2;durP2;ratioP2
1585;SDS011;786;48.718;9.514;2023-03-20T00:01:15;34.38;;;20.92;;
1585;SDS011;786;48.718;9.514;2023-03-20T00:03:43;38.10;;;22.88;;
1585;SDS011;786;48.718;9.514;2023-03-20T00:06:16;39.28;;;24.15;;
1585;SDS011;786;48.718;9.514;2023-03-20T00:08:43;44.75;;;25.40;;
1585;SDS011;786;48.718;9.514;2023-03-20T00:11:14;46.83;;;24.48;;
1585;SDS011;786;48.718;9.514;2023-03-20T00:13:52;46.20;;;25.63;;
1585;SDS011;786;48.718;9.514;2023-03-20T00:16:20;42.17;;;22.42;;
1585;SDS011;786;48.718;9.514;2023-03-20T00:18:49;40.40;;;21.98;;
1585;SDS011;786;48.718;9.514;2023-03-20T00:21:17;38.10;;;22.98;;
1585;SDS011;786;48.718;9.514;2023-03-20T00:23:44;29.73;;;20.70;;
1585;SDS011;786;48.718;9.514;2023-03-20T00:26:11;34.00;;;21.35;;
1585;SDS011;786;48.718;9.514;2023-03-20T00:28:39;32.60;;;22.05;;
1585;SDS011;786;48.718;9.514;2023-03-20T00:31:13;37.58;;;24.83;;
1585;SDS011;786;48.718;9.514;2023-03-20T00:33:43;37.58;;;23.48;;
1585;SDS011;786;48.718;9.514;2023-03-20T00:36:09;32.85;;;22.98;;
1585;SDS011;786;48.718;9.514;2023-03-20T00:38:36;28.48;;;20.40;;
1585;SDS011;786;48.718;9.514;2023-03-20T00:41:02;34.05;;;22.23;;
1585;SDS011;786;48.718;9.514;2023-03-20T00:43:41;29.42;;;20.50;;
1585;SDS011;786;48.718;9.514;2023-03-20T00:46:07;29.50;;;20.05;;
1585;SDS011;786;48.718;9.514;2023-03-20T00:48:37;29.77;;;20.83;;
1585;SDS011;786;48.718;9.514;2023-03-20T00:51:06;33.42;;;21.23;;
1585;SDS011;786;48.718;9.514;2023-03-20T00:53:33;32.47;;;21.30;;
1585;SDS011;786;48.718;9.514;2023-03-20T00:55:59;34.28;;;21.50;;
1585;SDS011;786;48.718;9.514;2023-03-20T00:58:25;30.48;;;19.83;;
1585;SDS011;786;48.718;9.514;2023-03-20T01:00:52;30.73;;;20.17;;
1585;SDS011;786;48.718;9.514;2023-03-20T01:03:20;31.58;;;19.90;;
1585;SDS011;786;48.718;9.514;2023-03-20T01:05:48;31.58;;;19.85;;
1585;SDS011;786;48.718;9.514;2023-03-20T01:08:17;32.95;;;19.80;;
1585;SDS011;786;48.718;9.514;2023-03-20T01:10:46;34.85;;;20.70;;
1585;SDS011;786;48.718;9.514;2023-03-20T01:13:16;26.80;;;19.05;;
1585;SDS011;786;48.718;9.514;2023-03-20T01:15:45;26.60;;;20.67;;
1585;SDS011;786;48.718;9.514;2023-03-20T01:18:12;25.92;;;18.27;;
1585;SDS011;786;48.718;9.514;2023-03-20T01:20:39;28.35;;;19.15;;
1585;SDS011;786;48.718;9.514;2023-03-20T01:23:06;33.50;;;21.73;;
1585;SDS011;786;48.718;9.514;2023-03-20T01:25:34;28.13;;;20.17;;
1585;SDS011;786;48.718;9.514;2023-03-20T01:28:01;33.75;;;23.55;;
1585;SDS011;786;48.718;9.514;2023-03-20T01:30:29;27.77;;;19.90;;
1585;SDS011;786;48.718;9.514;2023-03-20T01:32:57;32.10;;;20.70;;
1585;SDS011;786;48.718;9.514;2023-03-20T01:35:24;30.98;;;21.38;;
1585;SDS011;786;48.718;9.514;2023-03-20T01:37:53;26.02;;;20.35;;
1585;SDS011;786;48.718;9.514;2023-03-20T01:40:29;28.67;;;20.42;;
1585;SDS011;786;48.718;9.514;2023-03-20T01:42:59;28.65;;;20.58;;
1585;SDS011;786;48.718;9.514;2023-03-20T01:45:29;24.90;;;17.50;;
1585;SDS011;786;48.718;9.514;2023-03-20T01:47:57;24.17;;;18.15;;
1585;SDS011;786;48.718;9.514;2023-03-20T01:50:28;24.88;;;17.63;;
1585;SDS011;786;48.718;9.514;2023-03-20T01:52:58;27.02;;;20.23;;
1585;SDS011;786;48.718;9.514;2023-03-20T01:55:27;25.70;;;17.38;;
1585;SDS011;786;48.718;9.514;2023-03-20T01:57:55;26.00;;;18.45;;
1585;SDS011;786;48.718;9.514;2023-03-20T02:00:24;25.55;;;17.10;;
1585;SDS011;786;48.718;9.514;2023-03-20T02:02:51;23.45;;;16.33;;
1585;SDS011;786;48.718;9.514;2023-03-20T02:05:19;20.60;;;15.60;;
1585;SDS011;786;48.718;9.514;2023-03-20T02:07:48;22.73;;;17.40;;
1585;SDS011;786;48.718;9.514;2023-03-20T02:10:20;18.52;;;14.48;;
1585;SDS011;786;48.718;9.514;2023-03-20T02:12:47;17.00;;;12.95;;
1585;SDS011;786;48.718;9.514;2023-03-20T02:15:14;16.60;;;13.48;;
1585;SDS011;786;48.718;9.514;2023-03-20T02:17:43;17.45;;;13.88;;
1585;SDS011;786;48.718;9.514;2023-03-20T02:20:12;15.32;;;13.68;;
1585;SDS011;786;48.718;9.514;2023-03-20T02:29:03;16.85;;;12.40;;
1585;SDS011;786;48.718;9.514;2023-03-20T02:34:36;15.60;;;10.65;;
1585;SDS011;786;48.718;9.514;2023-03-20T02:37:28;15.00;;;13.43;;
1585;SDS011;786;48.718;9.514;2023-03-20T02:40:08;15.48;;;12.70;;
1585;SDS011;786;48.718;9.514;2023-03-20T02:42:43;16.67;;;13.27;;
1585;SDS011;786;48.718;9.514;2023-03-20T02:45:13;14.13;;;12.65;;
1585;SDS011;786;48.718;9.514;2023-03-20T02:47:45;12.30;;;10.98;;
1585;SDS011;786;48.718;9.514;2023-03-20T02:50:15;11.93;;;10.02;;
1585;SDS011;786;48.718;9.514;2023-03-20T02:52:47;12.30;;;11.07;;
1585;SDS011;786;48.718;9.514;2023-03-20T02:55:20;11.25;;;9.85;;
1585;SDS011;786;48.718;9.514;2023-03-20T02:57:55;12.63;;;10.80;;
1585;SDS011;786;48.718;9.514;2023-03-20T03:00:25;11.27;;;10.07;;
1585;SDS011;786;48.718;9.514;2023-03-20T03:02:56;11.95;;;10.63;;
1585;SDS011;786;48.718;9.514;2023-03-20T03:05:28;11.18;;;10.02;;
1585;SDS011;786;48.718;9.514;2023-03-20T03:08:01;13.43;;;12.10;;
1585;SDS011;786;48.718;9.514;2023-03-20T03:10:30;10.43;;;9.32;;
1585;SDS011;786;48.718;9.514;2023-03-20T03:12:59;14.40;;;12.57;;
1585;SDS011;786;48.718;9.514;2023-03-20T03:15:28;14.10;;;12.63;;
1585;SDS011;786;48.718;9.514;2023-03-20T03:17:57;12.10;;;10.77;;
1585;SDS011;786;48.718;9.514;2023-03-20T03:20:25;10.00;;;8.98;;
1585;SDS011;786;48.718;9.514;2023-03-20T03:22:54;11.77;;;10.55;;
1585;SDS011;786;48.718;9.514;2023-03-20T03:25:23;10.93;;;9.43;;
1585;SDS011;786;48.718;9.514;2023-03-20T03:27:53;13.93;;;10.93;;
1585;SDS011;786;48.718;9.514;2023-03-20T03:30:23;11.35;;;9.38;;
1585;SDS011;786;48.718;9.514;2023-03-20T03:32:56;11.10;;;10.00;;
1585;SDS011;786;48.718;9.514;2023-03-20T03:35:33;10.52;;;9.35;;
1585;SDS011;786;48.718;9.514;2023-03-20T03:38:00;11.73;;;9.65;;
1585;SDS011;786;48.718;9.514;2023-03-20T03:40:31;9.52;;;8.63;;
1585;SDS011;786;48.718;9.514;2023-03-20T03:43:02;10.00;;;8.45;;
1585;SDS011;786;48.718;9.514;2023-03-20T03:45:32;8.52;;;7.72;;
1585;SDS011;786;48.718;9.514;2023-03-20T03:48:02;9.10;;;8.20;;
1585;SDS011;786;48.718;9.514;2023-03-20T03:50:33;7.63;;;6.90;;
1585;SDS011;786;48.718;9.514;2023-03-20T03:53:05;8.05;;;7.32;;
1585;SDS011;786;48.718;9.514;2023-03-20T03:55:36;7.47;;;6.78;;
1585;SDS011;786;48.718;9.514;2023-03-20T03:58:05;7.97;;;7.28;;
1585;SDS011;786;48.718;9.514;2023-03-20T04:00:34;7.40;;;6.80;;
1585;SDS011;786;48.718;9.514;2023-03-20T04:03:01;7.85;;;7.15;;
1585;SDS011;786;48.718;9.514;2023-03-20T04:05:30;7.35;;;6.65;;
1585;SDS011;786;48.718;9.514;2023-03-20T04:07:57;10.30;;;9.50;;
1585;SDS011;786;48.718;9.514;2023-03-20T04:10:25;8.30;;;7.60;;
1585;SDS011;786;48.718;9.514;2023-03-20T04:12:52;8.20;;;7.50;;
1585;SDS011;786;48.718;9.514;2023-03-20T04:15:19;8.73;;;7.97;;
1585;SDS011;786;48.718;9.514;2023-03-20T04:17:46;10.70;;;9.70;;
1585;SDS011;786;48.718;9.514;2023-03-20T04:20:12;7.93;;;7.22;;
1585;SDS011;786;48.718;9.514;2023-03-20T04:22:40;9.32;;;8.52;;
1585;SDS011;786;48.718;9.514;2023-03-20T04:25:07;7.72;;;7.05;;
1585;SDS011;786;48.718;9.514;2023-03-20T04:27:35;8.73;;;7.95;;
1585;SDS011;786;48.718;9.514;2023-03-20T04:30:03;7.90;;;7.20;;
1585;SDS011;786;48.718;9.514;2023-03-20T04:32:30;6.50;;;5.97;;
1585;SDS011;786;48.718;9.514;2023-03-20T04:34:56;7.05;;;6.40;;
1585;SDS011;786;48.718;9.514;2023-03-20T04:37:23;8.27;;;7.57;;
1585;SDS011;786;48.718;9.514;2023-03-20T04:39:49;7.18;;;6.47;;
1585;SDS011;786;48.718;9.514;2023-03-20T04:42:16;5.88;;;5.38;;
1585;SDS011;786;48.718;9.514;2023-03-20T04:44:42;7.35;;;6.65;;
1585;SDS011;786;48.718;9.514;2023-03-20T04:47:10;8.35;;;7.65;;
1585;SDS011;786;48.718;9.514;2023-03-20T04:49:36;12.88;;;11.77;;
1585;SDS011;786;48.718;9.514;2023-03-20T04:52:03;10.13;;;9.27;;
1585;SDS011;786;48.718;9.514;2023-03-20T04:54:29;9.20;;;8.40;;
1585;SDS011;786;48.718;9.514;2023-03-20T04:56:56;10.18;;;9.27;;
1585;SDS011;786;48.718;9.514;2023-03-20T04:59:22;8.18;;;7.35;;
1585;SDS011;786;48.718;9.514;2023-03-20T05:01:49;9.60;;;8.77;;
1585;SDS011;786;48.718;9.514;2023-03-20T05:04:17;11.13;;;10.23;;
1585;SDS011;786;48.718;9.514;2023-03-20T05:06:43;8.13;;;7.32;;
1585;SDS011;786;48.718;9.514;2023-03-20T05:09:13;4.97;;;4.57;;
1585;SDS011;786;48.718;9.514;2023-03-20T05:11:39;7.20;;;6.60;;
1585;SDS011;786;48.718;9.514;2023-03-20T05:14:05;11.02;;;10.13;;
1585;SDS011;786;48.718;9.514;2023-03-20T05:16:32;6.68;;;6.07;;
1585;SDS011;786;48.718;9.514;2023-03-20T05:18:58;8.25;;;7.55;;
1585;SDS011;786;48.718;9.514;2023-03-20T05:21:26;7.22;;;6.53;;
1585;SDS011;786;48.718;9.514;2023-03-20T05:23:53;10.05;;;9.07;;
1585;SDS011;786;48.718;9.514;2023-03-20T05:26:20;9.23;;;8.43;;
1585;SDS011;786;48.718;9.514;2023-03-20T05:28:46;13.90;;;12.48;;
1585;SDS011;786;48.718;9.514;2023-03-20T05:31:12;14.85;;;13.32;;
1585;SDS011;786;48.718;9.514;2023-03-20T05:33:39;12.18;;;10.98;;
1585;SDS011;786;48.718;9.514;2023-03-20T05:36:06;14.43;;;13.07;;
1585;SDS011;786;48.718;9.514;2023-03-20T05:38:34;12.88;;;11.57;;
1585;SDS011;786;48.718;9.514;2023-03-20T05:41:00;14.02;;;12.20;;
1585;SDS011;786;48.718;9.514;2023-03-20T05:43:28;9.50;;;8.50;;
1585;SDS011;786;48.718;9.514;2023-03-20T05:45:54;13.82;;;12.52;;
1585;SDS011;786;48.718;9.514;2023-03-20T05:48:21;7.55;;;6.82;;
1585;SDS011;786;48.718;9.514;2023-03-20T05:50:47;7.53;;;6.82;;
1585;SDS011;786;48.718;9.514;2023-03-20T05:53:14;5.80;;;5.25;;
1585;SDS011;786;48.718;9.514;2023-03-20T05:55:42;8.13;;;7.03;;
1585;SDS011;786;48.718;9.514;2023-03-20T05:58:09;11.02;;;9.60;;
1585;SDS011;786;48.718;9.514;2023-03-20T06:00:35;14.77;;;13.25;;
1585;SDS011;786;48.718;9.514;2023-03-20T06:03:02;9.32;;;8.23;;
1585;SDS011;786;48.718;9.514;2023-03-20T06:05:28;7.35;;;6.63;;
1585;SDS011;786;48.718;9.514;2023-03-20T06:07:55;7.85;;;7.05;;
1585;SDS011;786;48.718;9.514;2023-03-20T06:10:21;7.72;;;6.85;;
1585;SDS011;786;48.718;9.514;2023-03-20T06:12:49;7.07;;;6.40;;
1585;SDS011;786;48.718;9.514;2023-03-20T06:15:15;15.55;;;14.00;;
1585;SDS011;786;48.718;9.514;2023-03-20T06:17:42;9.98;;;9.00;;
1585;SDS011;786;48.718;9.514;2023-03-20T06:20:09;9.07;;;8.15;;
1585;SDS011;786;48.718;9.514;2023-03-20T06:22:36;9.60;;;8.60;;
1585;SDS011;786;48.718;9.514;2023-03-20T06:25:02;8.32;;;7.50;;
1585;SDS011;786;48.718;9.514;2023-03-20T06:27:29;9.15;;;7.65;;
1585;SDS011;786;48.718;9.514;2023-03-20T06:29:57;7.93;;;5.95;;
1585;SDS011;786;48.718;9.514;2023-03-20T06:32:23;6.85;;;6.15;;
1585;SDS011;786;48.718;9.514;2023-03-20T06:34:50;7.18;;;6.53;;
1585;SDS011;786;48.718;9.514;2023-03-20T06:37:17;9.68;;;8.77;;
1585;SDS011;786;48.718;9.514;2023-03-20T06:39:43;9.77;;;8.85;;
1585;SDS011;786;48.718;9.514;2023-03-20T06:42:10;11.43;;;9.95;;
1585;SDS011;786;48.718;9.514;2023-03-20T06:44:37;14.23;;;11.85;;
1585;SDS011;786;48.718;9.514;2023-03-20T06:47:04;14.70;;;13.13;;
1585;SDS011;786;48.718;9.514;2023-03-20T06:49:31;10.82;;;9.60;;
1585;SDS011;786;48.718;9.514;2023-03-20T06:51:58;8.55;;;7.63;;
1585;SDS011;786;48.718;9.514;2023-03-20T06:54:24;7.32;;;6.63;;
1585;SDS011;786;48.718;9.514;2023-03-20T06:56:50;6.43;;;5.82;;
1585;SDS011;786;48.718;9.514;2023-03-20T06:59:17;12.02;;;10.93;;
1585;SDS011;786;48.718;9.514;2023-03-20T07:01:43;16.67;;;15.18;;
1585;SDS011;786;48.718;9.514;2023-03-20T07:04:11;12.73;;;11.57;;
1585;SDS011;786;48.718;9.514;2023-03-20T07:06:38;10.20;;;9.23;;
1585;SDS011;786;48.718;9.514;2023-03-20T07:09:05;9.90;;;9.00;;
1585;SDS011;786;48.718;9.514;2023-03-20T07:11:32;8.27;;;7.47;;
1585;SDS011;786;48.718;9.514;2023-03-20T07:13:58;11.77;;;10.18;;
1585;SDS011;786;48.718;9.514;2023-03-20T07:16:25;8.57;;;7.78;;
1585;SDS011;786;48.718;9.514;2023-03-20T07:18:51;9.02;;;8.25;;
1585;SDS011;786;48.718;9.514;2023-03-20T07:21:20;8.55;;;7.75;;
1585;SDS011;786;48.718;9.514;2023-03-20T07:23:47;9.32;;;8.43;;
1585;SDS011;786;48.718;9.514;2023-03-20T07:26:14;15.18;;;13.65;;
1585;SDS011;786;48.718;9.514;2023-03-20T07:28:40;10.73;;;9.82;;
1585;SDS011;786;48.718;9.514;2023-03-20T07:31:08;9.30;;;8.50;;
1585;SDS011;786;48.718;9.514;2023-03-20T07:33:35;11.90;;;10.77;;
1585;SDS011;786;48.718;9.514;2023-03-20T07:36:01;12.90;;;11.80;;
1585;SDS011;786;48.718;9.514;2023-03-20T07:38:29;4.88;;;4.47;;
1585;SDS011;786;48.718;9.514;2023-03-20T07:40:56;7.40;;;6.72;;
1585;SDS011;786;48.718;9.514;2023-03-20T07:43:22;6.90;;;6.28;;
1585;SDS011;786;48.718;9.514;2023-03-20T07:45:49;6.03;;;5.40;;
1585;SDS011;786;48.718;9.514;2023-03-20T07:48:15;6.60;;;5.80;;
1585;SDS011;786;48.718;9.514;2023-03-20T07:50:42;16.65;;;10.88;;
1585;SDS011;786;48.718;9.514;2023-03-20T07:53:08;9.25;;;8.35;;
1585;SDS011;786;48.718;9.514;2023-03-20T07:55:36;5.90;;;5.40;;
1585;SDS011;786;48.718;9.514;2023-03-20T07:58:03;7.65;;;6.97;;
1585;SDS011;786;48.718;9.514;2023-03-20T08:00:29;7.93;;;7.05;;
1585;SDS011;786;48.718;9.514;2023-03-20T08:02:56;6.53;;;5.85;;
1585;SDS011;786;48.718;9.514;2023-03-20T08:05:22;12.15;;;10.45;;
1585;SDS011;786;48.718;9.514;2023-03-20T08:07:49;9.77;;;8.88;;
1585;SDS011;786;48.718;9.514;2023-03-20T08:10:16;10.50;;;9.50;;
1585;SDS011;786;48.718;9.514;2023-03-20T08:12:44;13.20;;;11.82;;
1585;SDS011;786;48.718;9.514;2023-03-20T08:15:10;10.50;;;9.70;;
1585;SDS011;786;48.718;9.514;2023-03-20T08:17:37;7.60;;;7.00;;
1585;SDS011;786;48.718;9.514;2023-03-20T08:20:04;8.63;;;7.95;;
1585;SDS011;786;48.718;9.514;2023-03-20T08:22:31;8.38;;;7.80;;
1585;SDS011;786;48.718;9.514;2023-03-20T08:24:57;7.35;;;6.78;;
1585;SDS011;786;48.718;9.514;2023-03-20T08:27:24;11.65;;;10.75;;
1585;SDS011;786;48.718;9.514;2023-03-20T08:29:51;6.50;;;6.00;;
1585;SDS011;786;48.718;9.514;2023-03-20T08:32:18;5.68;;;5.20;;
1585;SDS011;786;48.718;9.514;2023-03-20T08:34:44;8.45;;;7.65;;
1585;SDS011;786;48.718;9.514;2023-03-20T08:37:11;8.65;;;7.85;;
1585;SDS011;786;48.718;9.514;2023-03-20T08:39:38;6.20;;;5.70;;
1585;SDS011;786;48.718;9.514;2023-03-20T08:42:04;5.88;;;5.28;;
1585;SDS011;786;48.718;9.514;2023-03-20T08:44:31;6.45;;;5.88;;
1585;SDS011;786;48.718;9.514;2023-03-20T08:46:59;5.60;;;5.10;;
1585;SDS011;786;48.718;9.514;2023-03-20T08:49:25;4.90;;;4.50;;
1585;SDS011;786;48.718;9.514;2023-03-20T08:51:52;5.40;;;4.78;;
1585;SDS011;786;48.718;9.514;2023-03-20T08:54:19;4.20;;;3.83;;
1585;SDS011;786;48.718;9.514;2023-03-20T08:56:45;10.05;;;9.15;;
1585;SDS011;786;48.718;9.514;2023-03-20T08:59:12;4.68;;;4.28;;
1585;SDS011;786;48.718;9.514;2023-03-20T09:01:38;6.82;;;6.13;;
1585;SDS011;786;48.718;9.514;2023-03-20T09:04:06;8.95;;;8.15;;
1585;SDS011;786;48.718;9.514;2023-03-20T09:06:34;6.68;;;6.07;;
1585;SDS011;786;48.718;9.514;2023-03-20T09:09:02;4.97;;;4.57;;
1585;SDS011;786;48.718;9.514;2023-03-20T09:11:28;3.92;;;3.58;;
1585;SDS011;786;48.718;9.514;2023-03-20T09:13:55;4.95;;;4.53;;
1585;SDS011;786;48.718;9.514;2023-03-20T09:16:21;4.53;;;4.13;;
1585;SDS011;786;48.718;9.514;2023-03-20T09:18:47;4.70;;;4.30;;
1585;SDS011;786;48.718;9.514;2023-03-20T09:21:15;5.43;;;5.03;;
1585;SDS011;786;48.718;9.514;2023-03-20T09:23:42;5.97;;;5.47;;
1585;SDS011;786;48.718;9.514;2023-03-20T09:26:08;6.75;;;6.15;;
1585;SDS011;786;48.718;9.514;2023-03-20T09:28:35;6.18;;;5.68;;
1585;SDS011;786;48.718;9.514;2023-03-20T09:31:01;5.80;;;5.40;;
1585;SDS011;786;48.718;9.514;2023-03-20T09:33:28;4.60;;;4.20;;
1585;SDS011;786;48.718;9.514;2023-03-20T09:35:54;5.43;;;4.63;;
1585;SDS011;786;48.718;9.514;2023-03-20T09:38:22;4.90;;;4.50;;
1585;SDS011;786;48.718;9.514;2023-03-20T09:40:50;4.57;;;4.25;;
1585;SDS011;786;48.718;9.514;2023-03-20T09:43:20;5.65;;;5.15;;
1585;SDS011;786;48.718;9.514;2023-03-20T09:45:53;5.45;;;5.03;;
1585;SDS011;786;48.718;9.514;2023-03-20T09:48:28;4.13;;;3.83;;
1585;SDS011;786;48.718;9.514;2023-03-20T09:51:01;4.75;;;4.35;;
1585;SDS011;786;48.718;9.514;2023-03-20T09:53:32;6.38;;;5.85;;
1585;SDS011;786;48.718;9.514;2023-03-20T09:56:00;5.85;;;5.35;;
1585;SDS011;786;48.718;9.514;2023-03-20T09:58:27;4.85;;;4.45;;
1585;SDS011;786;48.718;9.514;2023-03-20T10:00:57;5.70;;;5.20;;
1585;SDS011;786;48.718;9.514;2023-03-20T10:03:25;4.25;;;3.95;;
1585;SDS011;786;48.718;9.514;2023-03-20T10:05:55;5.63;;;5.22;;
1585;SDS011;786;48.718;9.514;2023-03-20T10:08:25;4.25;;;3.75;;
1585;SDS011;786;48.718;9.514;2023-03-20T10:10:57;6.45;;;6.05;;
1585;SDS011;786;48.718;9.514;2023-03-20T10:13:33;4.65;;;4.32;;
1585;SDS011;786;48.718;9.514;2023-03-20T10:16:11;4.95;;;4.65;;
1585;SDS011;786;48.718;9.514;2023-03-20T10:18:42;5.75;;;5.25;;
1585;SDS011;786;48.718;9.514;2023-03-20T10:21:14;8.65;;;8.05;;
1585;SDS011;786;48.718;9.514;2023-03-20T10:23:44;6.97;;;6.47;;
1585;SDS011;786;48.718;9.514;2023-03-20T10:26:17;6.40;;;6.00;;
1585;SDS011;786;48.718;9.514;2023-03-20T10:28:48;7.32;;;6.85;;
1585;SDS011;786;48.718;9.514;2023-03-20T10:33:56;6.45;;;6.05;;
1585;SDS011;786;48.718;9.514;2023-03-20T10:36:34;15.07;;;13.63;;
1585;SDS011;786;48.718;9.514;2023-03-20T10:39:08;4.80;;;4.50;;
1585;SDS011;786;48.718;9.514;2023-03-20T10:41:40;63.33;;;56.55;;
1585;SDS011;786;48.718;9.514;2023-03-20T10:44:18;19.55;;;17.58;;
1585;SDS011;786;48.718;9.514;2023-03-20T10:46:50;9.00;;;8.38;;
1585;SDS011;786;48.718;9.514;2023-03-20T10:49:17;14.02;;;12.85;;
1585;SDS011;786;48.718;9.514;2023-03-20T10:51:46;7.00;;;6.40;;
1585;SDS011;786;48.718;9.514;2023-03-20T10:54:18;35.45;;;30.75;;
1585;SDS011;786;48.718;9.514;2023-03-20T10:56:48;16.10;;;14.45;;
1585;SDS011;786;48.718;9.514;2023-03-20T10:59:17;7.88;;;7.18;;
1585;SDS011;786;48.718;9.514;2023-03-20T11:01:47;13.65;;;12.32;;
1585;SDS011;786;48.718;9.514;2023-03-20T11:04:14;7.60;;;6.80;;
1585;SDS011;786;48.718;9.514;2023-03-20T11:06:40;67.43;;;60.67;;
1585;SDS011;786;48.718;9.514;2023-03-20T11:09:14;27.15;;;24.70;;
1585;SDS011;786;48.718;9.514;2023-03-20T11:11:44;17.95;;;16.25;;
1585;SDS011;786;48.718;9.514;2023-03-20T11:14:16;15.55;;;14.18;;
1585;SDS011;786;48.718;9.514;2023-03-20T11:16:46;8.02;;;7.22;;
1585;SDS011;786;48.718;9.514;2023-03-20T11:19:13;4.70;;;3.95;;
1585;SDS011;786;48.718;9.514;2023-03-20T11:21:43;17.52;;;15.75;;
1585;SDS011;786;48.718;9.514;2023-03-20T11:24:18;8.82;;;7.90;;
1585;SDS011;786;48.718;9.514;2023-03-20T11:26:49;4.75;;;4.28;;
1585;SDS011;786;48.718;9.514;2023-03-20T11:29:25;6.25;;;5.65;;
1585;SDS011;786;48.718;9.514;2023-03-20T11:31:54;5.78;;;4.82;;
1585;SDS011;786;48.718;9.514;2023-03-20T11:34:30;14.00;;;11.88;;
1585;SDS011;786;48.718;9.514;2023-03-20T11:36:58;38.25;;;34.50;;
1585;SDS011;786;48.718;9.514;2023-03-20T11:39:26;8.77;;;7.97;;
1585;SDS011;786;48.718;9.514;2023-03-20T11:41:57;9.63;;;6.93;;
1585;SDS011;786;48.718;9.514;2023-03-20T11:44:26;7.60;;;6.35;;
1585;SDS011;786;48.718;9.514;2023-03-20T11:46:55;12.23;;;10.93;;
1585;SDS011;786;48.718;9.514;2023-03-20T11:49:22;7.25;;;6.40;;
1585;SDS011;786;48.718;9.514;2023-03-20T11:51:51;6.65;;;5.80;;
1585;SDS011;786;48.718;9.514;2023-03-20T11:54:19;4.93;;;4.43;;
1585;SDS011;786;48.718;9.514;2023-03-20T11:56:51;7.88;;;6.63;;
1585;SDS011;786;48.718;9.514;2023-03-20T11:59:18;5.82;;;5.20;;
1585;SDS011;786;48.718;9.514;2023-03-20T12:01:47;6.63;;;5.80;;
1585;SDS011;786;48.718;9.514;2023-03-20T12:04:15;9.15;;;7.55;;
1585;SDS011;786;48.718;9.514;2023-03-20T12:06:44;7.65;;;6.85;;
1585;SDS011;786;48.718;9.514;2023-03-20T12:09:16;5.68;;;4.93;;
1585;SDS011;786;48.718;9.514;2023-03-20T12:11:56;6.78;;;6.10;;
1585;SDS011;786;48.718;9.514;2023-03-20T12:14:26;4.07;;;3.53;;
1585;SDS011;786;48.718;9.514;2023-03-20T12:17:04;8.45;;;7.45;;
1585;SDS011;786;48.718;9.514;2023-03-20T12:19:48;6.50;;;5.80;;
1585;SDS011;786;48.718;9.514;2023-03-20T12:22:16;5.35;;;4.78;;
1585;SDS011;786;48.718;9.514;2023-03-20T12:24:48;5.28;;;4.60;;
1585;SDS011;786;48.718;9.514;2023-03-20T12:27:20;9.48;;;7.22;;
1585;SDS011;786;48.718;9.514;2023-03-20T12:29:50;5.50;;;4.97;;
1585;SDS011;786;48.718;9.514;2023-03-20T12:32:20;5.40;;;4.90;;
1585;SDS011;786;48.718;9.514;2023-03-20T12:34:50;5.45;;;4.93;;
1585;SDS011;786;48.718;9.514;2023-03-20T12:37:18;9.88;;;8.98;;
1585;SDS011;786;48.718;9.514;2023-03-20T12:39:47;7.28;;;6.57;;
1585;SDS011;786;48.718;9.514;2023-03-20T12:42:18;6.03;;;4.85;;
1585;SDS011;786;48.718;9.514;2023-03-20T12:44:52;6.38;;;5.75;;
1585;SDS011;786;48.718;9.514;2023-03-20T12:47:29;9.30;;;8.43;;
1585;SDS011;786;48.718;9.514;2023-03-20T12:50:06;6.50;;;5.88;;
1585;SDS011;786;48.718;9.514;2023-03-20T12:52:38;8.45;;;7.22;;
1585;SDS011;786;48.718;9.514;2023-03-20T12:55:24;5.93;;;5.32;;
1585;SDS011;786;48.718;9.514;2023-03-20T12:57:59;8.48;;;7.68;;
1585;SDS011;786;48.718;9.514;2023-03-20T13:00:29;5.38;;;4.93;;
1585;SDS011;786;48.718;9.514;2023-03-20T13:03:03;8.57;;;7.78;;
1585;SDS011;786;48.718;9.514;2023-03-20T13:05:42;6.00;;;5.45;;
1585;SDS011;786;48.718;9.514;2023-03-20T13:11:03;5.93;;;5.43;;
1585;SDS011;786;48.718;9.514;2023-03-20T13:13:36;5.70;;;5.20;;
1585;SDS011;786;48.718;9.514;2023-03-20T13:16:08;6.20;;;5.60;;
1585;SDS011;786;48.718;9.514;2023-03-20T13:18:46;6.70;;;6.10;;
1585;SDS011;786;48.718;9.514;2023-03-20T13:21:18;7.45;;;6.85;;
1585;SDS011;786;48.718;9.514;2023-03-20T13:23:51;7.72;;;7.03;;
1585;SDS011;786;48.718;9.514;2023-03-20T13:26:24;7.00;;;6.38;;
1585;SDS011;786;48.718;9.514;2023-03-20T13:28:59;11.45;;;9.85;;
1585;SDS011;786;48.718;9.514;2023-03-20T13:34:15;9.18;;;8.27;;
1585;SDS011;786;48.718;9.514;2023-03-20T13:36:52;7.55;;;6.93;;
1585;SDS011;786;48.718;9.514;2023-03-20T13:39:24;5.20;;;4.20;;
1585;SDS011;786;48.718;9.514;2023-03-20T13:41:52;7.03;;;6.35;;
1585;SDS011;786;48.718;9.514;2023-03-20T13:44:19;10.02;;;8.13;;
1585;SDS011;786;48.718;9.514;2023-03-20T13:46:49;6.25;;;5.60;;
1585;SDS011;786;48.718;9.514;2023-03-20T13:49:20;7.30;;;6.60;;
1585;SDS011;786;48.718;9.514;2023-03-20T13:51:50;7.57;;;6.88;;
1585;SDS011;786;48.718;9.514;2023-03-20T13:54:33;5.80;;;5.30;;
1585;SDS011;786;48.718;9.514;2023-03-20T13:57:09;7.57;;;6.88;;
1585;SDS011;786;48.718;9.514;2023-03-20T13:59:42;5.53;;;5.03;;
1585;SDS011;786;48.718;9.514;2023-03-20T14:02:26;6.45;;;5.85;;
1585;SDS011;786;48.718;9.514;2023-03-20T14:05:02;6.65;;;6.05;;
1585;SDS011;786;48.718;9.514;2023-03-20T14:07:32;7.82;;;6.57;;
1585;SDS011;786;48.718;9.514;2023-03-20T14:13:02;6.00;;;5.03;;
1585;SDS011;786;48.718;9.514;2023-03-20T14:15:32;6.72;;;6.10;;
1585;SDS011;786;48.718;9.514;2023-03-20T14:18:02;6.30;;;5.70;;
1585;SDS011;786;48.718;9.514;2023-03-20T14:20:32;6.72;;;6.13;;
1585;SDS011;786;48.718;9.514;2023-03-20T14:22:59;6.60;;;6.00;;
1585;SDS011;786;48.718;9.514;2023-03-20T14:25:27;7.13;;;4.72;;
1585;SDS011;786;48.718;9.514;2023-03-20T14:27:59;8.27;;;7.43;;
1585;SDS011;786;48.718;9.514;2023-03-20T14:30:40;7.60;;;6.85;;
1585;SDS011;786;48.718;9.514;2023-03-20T14:33:22;6.03;;;5.43;;
1585;SDS011;786;48.718;9.514;2023-03-20T14:36:09;6.78;;;6.07;;
1585;SDS011;786;48.718;9.514;2023-03-20T14:38:36;6.95;;;6.35;;
1585;SDS011;786;48.718;9.514;2023-03-20T14:41:04;6.47;;;5.88;;
1585;SDS011;786;48.718;9.514;2023-03-20T14:43:39;5.97;;;5.38;;
1585;SDS011;786;48.718;9.514;2023-03-20T14:46:21;5.07;;;4.63;;
1585;SDS011;786;48.718;9.514;2023-03-20T14:48:52;6.40;;;5.80;;
1585;SDS011;786;48.718;9.514;2023-03-20T14:51:28;5.47;;;4.97;;
1585;SDS011;786;48.718;9.514;2023-03-20T14:56:45;6.85;;;6.25;;
1585;SDS011;786;48.718;9.514;2023-03-20T14:59:12;6.03;;;5.43;;
1585;SDS011;786;48.718;9.514;2023-03-20T15:01:42;8.32;;;7.55;;
1585;SDS011;786;48.718;9.514;2023-03-20T15:04:14;11.35;;;10.27;;
1585;SDS011;786;48.718;9.514;2023-03-20T15:06:50;9.68;;;8.55;;
1585;SDS011;786;48.718;9.514;2023-03-20T15:09:19;8.45;;;7.50;;
1585;SDS011;786;48.718;9.514;2023-03-20T15:11:49;12.18;;;10.95;;
1585;SDS011;786;48.718;9.514;2023-03-20T15:14:30;9.02;;;8.13;;
1585;SDS011;786;48.718;9.514;2023-03-20T15:16:59;13.65;;;12.32;;
1585;SDS011;786;48.718;9.514;2023-03-20T15:19:26;11.35;;;8.20;;
1585;SDS011;786;48.718;9.514;2023-03-20T15:21:53;11.52;;;9.43;;
1585;SDS011;786;48.718;9.514;2023-03-20T15:24:20;9.27;;;8.35;;
1585;SDS011;786;48.718;9.514;2023-03-20T15:26:51;7.65;;;6.85;;
1585;SDS011;786;48.718;9.514;2023-03-20T15:29:18;7.82;;;7.03;;
1585;SDS011;786;48.718;9.514;2023-03-20T15:31:45;8.40;;;7.47;;
1585;SDS011;786;48.718;9.514;2023-03-20T15:34:17;8.50;;;7.60;;
1585;SDS011;786;48.718;9.514;2023-03-20T15:36:45;9.65;;;8.52;;
1585;SDS011;786;48.718;9.514;2023-03-20T15:39:13;10.00;;;9.00;;
1585;SDS011;786;48.718;9.514;2023-03-20T15:41:43;9.95;;;8.93;;
1585;SDS011;786;48.718;9.514;2023-03-20T15:44:16;8.35;;;7.47;;
1585;SDS011;786;48.718;9.514;2023-03-20T15:46:49;9.55;;;8.35;;
1585;SDS011;786;48.718;9.514;2023-03-20T15:49:21;6.93;;;6.22;;
1585;SDS011;786;48.718;9.514;2023-03-20T15:51:48;9.38;;;8.48;;
1585;SDS011;786;48.718;9.514;2023-03-20T15:54:15;8.93;;;8.02;;
1585;SDS011;786;48.718;9.514;2023-03-20T15:56:43;8.23;;;7.35;;